Historyczne dane pomiarowe

Dodano dane terminowe – wersja testowa.

Dane z okresu 1951-2019

Wersja bazy: 1.34 [2019-03-16, lista zmian], aktualizacja planowana na 2019-04-15

Dane meteo z obszaru Polski uzyskane na podstawie danych udostępnionych przez Instytut Meteorologii i Gospodarki Wodnej – Państwowy Instytut Badawczy.

 

Wybierz Datę:    

       

TemperaturaWilgotnośćWiatrCiśnienieOpadyŚniegCzas trwania zjawisk
 Stacja t tx tn tng RH VA  wxwx mslp ppp RRR   cm mm wxwxwxwxwxwxwx
2012-08-13 14.2 22.5 6.9 4.9-- 2.3 1.7---- 0.0------------
2012-08-14 16.5 22.0 11.4 11.0-- 4.3 3.0---- 0.0------------
2012-08-15 16.0 19.5 13.4 13.0-- 6.0 2.0---- 0.0------------
2012-08-16 16.0 22.0 8.9 7.4-- 6.3 1.0---- 0.6------------
2012-08-17 18.6 25.0 12.9 11.5-- 4.3 1.7---- 0.0------------
2012-08-18 17.6 27.0 8.4 7.9-- 1.7 1.0---- 0.0------------
2012-08-19 20.9 31.5 11.4 9.4-- 0.0 1.7---- 0.0------------
2012-08-20 24.8 36.0 16.0 13.0-- 2.0 1.3---- 6.9------------
2012-08-21 23.4 29.6 18.5 17.5-- 4.0 1.3---- 0.0------------
2012-08-22 21.6 27.0 17.0 15.5-- 3.0 2.7---- 1.6------------
2012-08-23 17.9 25.5 11.9 9.9-- 1.0 2.3---- 0.0------------
2012-08-24 18.2 28.0 8.9 7.9-- 4.0 1.7---- 7.6------------
2012-08-25 21.2 26.0 17.5 17.0-- 4.7 2.7---- 1.0------------
2012-08-26 19.1 22.1 15.4 13.5-- 5.7 2.0---- 0.4------------
2012-08-27 16.4 19.5 13.9 11.5-- 4.0 3.3---- 0.0------------
2012-08-28 12.7 23.0 4.5 2.4-- 0.7 1.3---- 0.0------------
2012-08-29 18.0 27.0 10.8 8.4-- 1.3 1.3---- 0.0------------
2012-08-30 18.9 30.0 10.3 7.9-- 1.3 1.0---- 0.0------------
2012-08-31 18.8 23.3 16.0 15.0-- 7.3 2.0---- 2.4------------
2012-09-01 16.2 18.0 14.4 13.5-- 7.7 1.3---- 1.4------------
2012-09-02 16.6 22.3 11.4 11.0-- 6.0 1.0---- 0.0------------
2012-09-03 17.2 24.5 11.9 9.9-- 5.3 0.7---- 0.0------------
2012-09-04 14.8 24.0 7.9 5.9-- 0.7 0.7---- 0.0------------
2012-09-05 15.3 25.0 8.4 5.9-- 4.0 2.0---- 1.8------------
2012-09-06 14.1 19.0 11.4 9.9-- 3.3 1.7---- 0.0------------
2012-09-07 12.4 17.5 7.4 4.9-- 7.3 3.0---- 1.5------------
2012-09-08 16.2 20.0 13.4 13.0-- 5.7 2.0---- 0.0------------
2012-09-09 16.1 22.0 12.4 11.5-- 3.3 0.7---- 0.0------------
2012-09-10 18.1 29.5 9.8 7.9-- 0.0 2.3---- 0.0------------
2012-09-11 19.7 31.5 11.4 8.4-- 0.3 1.3---- 0.0------------
143.3 ms

 

Źródłem pochodzenia danych jest Instytut Meteorologii i Gospodarki Wodnej – Państwowy Instytut Badawczy. Dane Instytutu Meteorologii i Gospodarki Wodnej – Państwowego Instytutu Badawczego zostały przetworzone.

Dane źródłowe można odnaleźć na stronie https://dane.imgw.pl